Time;durP1;ratioP1;P1;durP2;ratioP2;P2;SDS_P1;SDS_P2;PMS_P1;PMS_P2;Temp;Humidity;BMP_temperature;BMP_pressure;BME280_temperature;BME280_humidity;BME280_pressure;Samples;Min_cycle;Max_cycle;Signal;HPM_P1;HPM_P2
2022/07/17 00:00:31;;;;;;;5.18;1.48;;;;;;;24.80;29.46;100150.38;4498041;31;33912;-61
2022/07/17 00:02:59;;;;;;;4.40;1.52;;;;;;;24.62;29.81;100152.72;4492224;31;33787;-61
2022/07/17 00:05:26;;;;;;;4.25;1.30;;;;;;;24.56;29.83;100148.06;4496280;31;34289;-60
2022/07/17 00:07:54;;;;;;;3.85;1.80;;;;;;;24.37;30.44;100155.84;4496807;31;34627;-60
2022/07/17 00:10:21;;;;;;;4.37;1.33;;;;;;;23.96;31.24;100152.00;4497632;31;33487;-60
2022/07/17 00:12:49;;;;;;;2.67;1.17;;;;;;;24.24;30.58;100155.69;4499796;31;34025;-60
2022/07/17 00:15:19;;;;;;;2.55;1.30;;;;;;;23.40;31.56;100156.06;4497976;31;35016;-59
2022/07/17 00:17:46;;;;;;;5.28;1.37;;;;;;;23.63;31.54;100166.06;4498467;31;33276;-60
2022/07/17 00:20:14;;;;;;;2.83;1.30;;;;;;;23.98;31.41;100167.16;4499632;31;33848;-60
2022/07/17 00:22:42;;;;;;;2.22;1.20;;;;;;;23.39;32.37;100167.16;4497829;31;32785;-60
2022/07/17 00:25:10;;;;;;;3.62;1.40;;;;;;;23.79;31.26;100176.81;4495809;31;34090;-60
2022/07/17 00:27:38;;;;;;;3.08;1.25;;;;;;;23.96;31.04;100162.94;4494883;31;32427;-60
2022/07/17 00:30:07;;;;;;;3.33;1.40;;;;;;;24.14;31.05;100172.41;4495609;31;33937;-59
2022/07/17 00:32:35;;;;;;;4.82;1.58;;;;;;;23.93;31.08;100173.19;4493340;31;32551;-60
2022/07/17 00:35:03;;;;;;;2.83;1.17;;;;;;;24.06;30.88;100171.66;4499055;31;32352;-59
2022/07/17 00:37:38;;;;;;;2.47;1.23;;;;;;;24.18;30.56;100173.72;4494664;31;32569;-60
2022/07/17 00:40:07;;;;;;;3.05;1.48;;;;;;;24.16;30.91;100180.41;4500908;31;33754;-60
2022/07/17 00:42:35;;;;;;;9.05;1.95;;;;;;;24.34;30.65;100180.00;4500954;31;34875;-60
2022/07/17 00:45:03;;;;;;;3.97;1.50;;;;;;;24.34;30.33;100189.03;4496074;31;35120;-60
2022/07/17 00:47:31;;;;;;;2.80;1.05;;;;;;;24.27;30.52;100187.25;4499392;31;33491;-61
2022/07/17 00:49:59;;;;;;;4.32;1.75;;;;;;;24.20;30.72;100187.19;4500924;31;33930;-60
2022/07/17 00:52:27;;;;;;;2.75;1.20;;;;;;;24.22;30.61;100184.28;4500439;31;34091;-60
2022/07/17 00:54:56;;;;;;;4.82;1.48;;;;;;;24.23;30.63;100191.44;4501543;31;33865;-60
2022/07/17 00:57:45;;;;;;;2.90;1.30;;;;;;;24.20;30.75;100191.81;4494142;31;32262;-60
2022/07/17 01:00:17;;;;;;;4.93;1.62;;;;;;;24.18;30.81;100192.00;4499395;31;33875;-61
2022/07/17 01:02:47;;;;;;;2.97;1.15;;;;;;;24.29;30.70;100190.66;4501477;31;34054;-61
2022/07/17 01:05:16;;;;;;;2.87;1.30;;;;;;;24.14;30.95;100193.41;4498916;31;34383;-60
2022/07/17 01:07:48;;;;;;;4.72;1.65;;;;;;;24.06;31.16;100188.06;4500819;31;33487;-61
2022/07/17 01:10:17;;;;;;;4.03;1.40;;;;;;;24.17;31.06;100193.03;4500225;31;34987;-60
2022/07/17 01:12:46;;;;;;;2.40;1.50;;;;;;;24.21;30.95;100197.09;4500986;31;35035;-60
2022/07/17 01:15:14;;;;;;;3.50;1.40;;;;;;;24.12;31.24;100198.25;4498073;31;34017;-60
2022/07/17 01:17:43;;;;;;;3.67;1.48;;;;;;;24.21;31.37;100205.31;4486553;31;33568;-60
2022/07/17 01:20:11;;;;;;;3.00;1.30;;;;;;;24.14;31.16;100199.75;4493500;31;33671;-61
2022/07/17 01:22:41;;;;;;;3.03;1.45;;;;;;;24.10;31.41;100203.06;4500779;31;32804;-60
2022/07/17 01:25:09;;;;;;;2.72;1.35;;;;;;;24.05;31.76;100200.06;4499354;31;33397;-61
2022/07/17 01:27:37;;;;;;;2.28;1.33;;;;;;;24.06;31.42;100199.84;4497514;31;35166;-62
2022/07/17 01:30:06;;;;;;;2.65;1.12;;;;;;;24.04;31.68;100206.53;4498856;31;33583;-61
2022/07/17 01:32:35;;;;;;;3.67;1.27;;;;;;;23.94;31.57;100198.62;4501152;31;35223;-62
2022/07/17 01:35:04;;;;;;;2.22;1.15;;;;;;;23.95;31.51;100211.28;4501184;31;34165;-61
2022/07/17 01:37:32;;;;;;;3.62;1.60;;;;;;;23.94;31.88;100215.03;4498741;31;34635;-61
2022/07/17 01:40:00;;;;;;;3.60;1.40;;;;;;;23.77;31.87;100214.41;4498562;31;34284;-62
2022/07/17 01:42:28;;;;;;;2.78;1.17;;;;;;;23.74;31.87;100205.75;4496144;31;34272;-62
2022/07/17 01:44:56;;;;;;;3.87;1.27;;;;;;;23.76;31.90;100211.88;4499636;31;34190;-61
2022/07/17 01:47:24;;;;;;;2.20;1.33;;;;;;;23.58;32.11;100209.47;4498085;31;33604;-60
2022/07/17 01:49:53;;;;;;;3.28;1.52;;;;;;;23.17;32.89;100209.87;4489550;31;35381;-62
2022/07/17 01:52:22;;;;;;;3.35;1.30;;;;;;;23.07;32.97;100217.50;4489571;31;34020;-61
2022/07/17 01:54:50;;;;;;;2.65;1.20;;;;;;;23.25;32.80;100215.28;4490466;31;32867;-61
2022/07/17 01:57:18;;;;;;;3.10;1.40;;;;;;;23.14;32.74;100218.44;4498269;31;34379;-61
2022/07/17 01:59:46;;;;;;;3.17;1.35;;;;;;;23.29;32.54;100223.94;4499114;31;34736;-60
2022/07/17 02:02:17;;;;;;;2.72;1.50;;;;;;;23.20;32.63;100225.91;4498732;31;33885;-60
2022/07/17 02:04:45;;;;;;;3.20;1.30;;;;;;;23.23;32.79;100223.66;4500864;31;34068;-60
2022/07/17 02:07:13;;;;;;;2.90;1.48;;;;;;;22.92;33.04;100231.06;4499275;31;33215;-59
2022/07/17 02:09:40;;;;;;;2.53;1.48;;;;;;;23.02;32.96;100232.56;4499429;31;33840;-60
2022/07/17 02:12:08;;;;;;;2.03;1.35;;;;;;;22.93;33.03;100227.31;4497935;31;33901;-61
2022/07/17 02:14:36;;;;;;;3.17;1.55;;;;;;;22.86;33.06;100229.94;4496757;31;32450;-62
2022/07/17 02:17:04;;;;;;;2.12;1.33;;;;;;;22.72;33.27;100233.44;4494817;31;34601;-61
2022/07/17 02:19:32;;;;;;;3.12;1.52;;;;;;;22.67;33.39;100231.25;4496319;31;34961;-59
2022/07/17 02:21:59;;;;;;;2.55;1.30;;;;;;;22.48;33.94;100240.75;4500725;31;34135;-59
2022/07/17 02:24:27;;;;;;;3.10;1.40;;;;;;;22.44;33.51;100244.00;4498664;31;34042;-59
2022/07/17 02:26:54;;;;;;;2.78;1.27;;;;;;;22.53;33.28;100249.22;4496778;31;35039;-60
2022/07/17 02:29:22;;;;;;;3.42;1.30;;;;;;;22.44;33.65;100244.88;4499432;31;32593;-61
2022/07/17 02:31:50;;;;;;;2.37;1.30;;;;;;;22.64;33.15;100264.34;4500345;31;33943;-61
2022/07/17 02:34:18;;;;;;;3.10;1.33;;;;;;;22.27;33.90;100267.78;4499585;31;33842;-60
2022/07/17 02:36:45;;;;;;;3.00;1.33;;;;;;;22.69;33.14;100263.81;4491939;31;33263;-61
2022/07/17 02:39:13;;;;;;;3.65;1.50;;;;;;;22.81;33.14;100266.97;4497374;31;35264;-61
2022/07/17 02:41:40;;;;;;;4.20;1.33;;;;;;;22.91;32.97;100267.56;4500787;31;33649;-60
2022/07/17 02:44:08;;;;;;;3.05;1.37;;;;;;;22.79;32.90;100259.81;4499343;31;34074;-60
2022/07/17 02:46:35;;;;;;;2.03;0.98;;;;;;;22.72;33.08;100261.56;4497289;31;33712;-60
2022/07/17 02:49:04;;;;;;;3.47;1.40;;;;;;;22.92;32.77;100263.81;4500463;31;32127;-61
2022/07/17 02:51:31;;;;;;;3.22;1.45;;;;;;;22.74;32.96;100267.69;4499486;31;35140;-60
2022/07/17 02:53:59;;;;;;;6.85;1.40;;;;;;;22.90;32.89;100272.19;4499003;31;34228;-60
2022/07/17 02:56:27;;;;;;;1.73;1.10;;;;;;;22.67;33.62;100268.63;4499821;31;33547;-60
2022/07/17 02:58:54;;;;;;;2.00;1.00;;;;;;;22.84;33.08;100270.19;4499519;31;33747;-61
2022/07/17 03:01:22;;;;;;;2.75;1.10;;;;;;;22.83;33.10;100276.69;4499231;31;33799;-60
2022/07/17 03:03:49;;;;;;;3.62;1.25;;;;;;;22.84;32.70;100272.91;4499045;31;34827;-61
2022/07/17 03:06:17;;;;;;;2.70;1.27;;;;;;;23.14;32.27;100268.44;4498466;31;34618;-60
2022/07/17 03:08:45;;;;;;;2.83;1.05;;;;;;;22.61;33.31;100278.38;4499986;31;34703;-60
2022/07/17 03:11:13;;;;;;;2.33;1.40;;;;;;;23.02;32.71;100272.66;4500247;31;34926;-60
2022/07/17 03:13:40;;;;;;;2.85;1.30;;;;;;;23.02;32.31;100270.78;4500031;31;33975;-61
2022/07/17 03:16:08;;;;;;;2.50;1.20;;;;;;;22.94;32.89;100278.16;4495827;31;33380;-60
2022/07/17 03:18:36;;;;;;;4.20;1.37;;;;;;;23.12;32.53;100275.97;4493507;31;34910;-62
2022/07/17 03:21:04;;;;;;;2.22;1.00;;;;;;;23.19;32.17;100281.56;4498663;31;35216;-60
2022/07/17 03:23:32;;;;;;;4.57;1.30;;;;;;;23.11;32.29;100285.19;4500160;31;34007;-62
2022/07/17 03:25:59;;;;;;;2.20;1.17;;;;;;;22.93;32.80;100298.28;4500279;31;33453;-60
2022/07/17 03:28:27;;;;;;;2.55;1.20;;;;;;;23.14;32.13;100298.47;4495291;31;32522;-61
2022/07/17 03:30:54;;;;;;;1.95;1.27;;;;;;;23.27;32.22;100308.78;4497358;31;34732;-61
2022/07/17 03:33:22;;;;;;;3.35;1.30;;;;;;;23.39;31.93;100307.31;4500524;31;35246;-60
2022/07/17 03:35:50;;;;;;;1.73;1.10;;;;;;;23.45;32.01;100309.31;4500007;31;33684;-61
2022/07/17 03:38:17;;;;;;;2.50;1.23;;;;;;;23.42;32.22;100315.13;4499276;31;33724;-60
2022/07/17 03:40:45;;;;;;;3.37;1.40;;;;;;;23.35;32.23;100316.06;4498173;31;35131;-62
2022/07/17 03:43:13;;;;;;;2.78;1.20;;;;;;;23.59;31.62;100313.09;4496171;31;33461;-61
2022/07/17 03:45:41;;;;;;;2.25;1.10;;;;;;;23.66;31.76;100315.97;4497460;31;34738;-61
2022/07/17 03:48:09;;;;;;;3.72;1.30;;;;;;;23.56;31.97;100321.66;4497076;31;35066;-61
2022/07/17 03:50:37;;;;;;;4.15;1.20;;;;;;;23.35;32.44;100311.47;4499102;31;35199;-62
2022/07/17 03:53:04;;;;;;;2.85;1.35;;;;;;;23.42;32.45;100326.06;4499246;31;34175;-61
2022/07/17 03:55:32;;;;;;;3.15;1.20;;;;;;;23.15;33.16;100321.19;4500294;31;33337;-62
2022/07/17 03:58:00;;;;;;;4.87;1.48;;;;;;;23.59;31.96;100324.03;4499807;31;35002;-61
2022/07/17 04:00:27;;;;;;;3.70;1.30;;;;;;;23.66;32.30;100326.91;4498651;31;34089;-60
2022/07/17 04:02:55;;;;;;;3.33;1.52;;;;;;;23.76;31.99;100322.03;4495890;31;33928;-62
2022/07/17 04:05:22;;;;;;;1.87;1.00;;;;;;;23.75;32.35;100327.69;4502772;31;33632;-61
2022/07/17 04:07:50;;;;;;;2.95;1.10;;;;;;;23.88;31.34;100339.69;4504133;31;33719;-60
2022/07/17 04:10:18;;;;;;;3.53;1.05;;;;;;;23.78;32.09;100343.69;4503698;31;35095;-63
2022/07/17 04:12:45;;;;;;;3.17;1.42;;;;;;;23.91;31.59;100346.63;4488484;31;32696;-60
2022/07/17 04:15:48;;;;;;;3.00;1.50;;;;;;;23.79;31.61;100348.13;4503218;31;33439;-61
2022/07/17 04:18:01;;;;;;;2.83;1.23;;;;;;;23.94;31.03;100343.53;4500552;31;33919;-63
2022/07/17 04:20:28;;;;;;;3.72;1.20;;;;;;;24.00;31.01;100348.25;4504162;31;33026;-61
2022/07/17 04:22:57;;;;;;;2.45;1.45;;;;;;;24.01;31.40;100354.56;4502541;31;33983;-61
2022/07/17 04:25:25;;;;;;;2.28;1.05;;;;;;;24.12;30.89;100356.84;4491910;31;33575;-62
2022/07/17 04:27:52;;;;;;;3.15;1.30;;;;;;;23.91;31.32;100354.84;4503097;31;33878;-61
2022/07/17 04:30:20;;;;;;;2.85;1.05;;;;;;;23.97;30.99;100356.00;4502342;31;34047;-61
2022/07/17 04:32:48;;;;;;;4.28;1.20;;;;;;;23.85;31.38;100353.72;4503781;31;33982;-62
2022/07/17 04:35:16;;;;;;;2.00;1.15;;;;;;;23.75;32.05;100358.59;4501550;31;34901;-63
2022/07/17 04:37:43;;;;;;;3.35;1.02;;;;;;;23.89;32.04;100359.66;4502442;31;35043;-62
2022/07/17 04:40:11;;;;;;;3.20;1.35;;;;;;;23.46;31.90;100359.31;4502729;31;34155;-62
2022/07/17 04:42:39;;;;;;;3.15;1.20;;;;;;;23.63;31.86;100363.63;4502421;31;35200;-63
2022/07/17 04:45:07;;;;;;;3.12;1.20;;;;;;;23.83;32.27;100372.19;4504145;31;33463;-61
2022/07/17 04:47:35;;;;;;;4.53;1.20;;;;;;;23.86;31.36;100369.09;4499184;31;33755;-61
2022/07/17 04:50:03;;;;;;;3.70;1.92;;;;;;;23.95;31.69;100372.59;4503842;31;34029;-60
2022/07/17 04:52:31;;;;;;;2.33;1.10;;;;;;;23.61;32.11;100381.25;4498721;31;34033;-62
2022/07/17 04:54:59;;;;;;;2.80;1.20;;;;;;;23.57;31.89;100379.91;4495491;31;31903;-62
2022/07/17 04:57:26;;;;;;;2.72;1.15;;;;;;;23.92;32.30;100371.06;4500684;31;34070;-60
2022/07/17 04:59:54;;;;;;;2.80;1.30;;;;;;;23.93;32.36;100386.44;4496863;31;32451;-61
2022/07/17 05:02:22;;;;;;;3.75;1.30;;;;;;;24.13;31.50;100384.00;4503355;31;34199;-62
2022/07/17 05:04:49;;;;;;;2.45;1.17;;;;;;;23.92;32.76;100381.16;4503465;31;34761;-61
2022/07/17 05:07:17;;;;;;;3.60;1.12;;;;;;;23.72;32.85;100380.81;4503917;31;33689;-63
2022/07/17 05:09:45;;;;;;;2.70;1.20;;;;;;;23.88;31.87;100385.28;4500720;31;34038;-61
2022/07/17 05:12:12;;;;;;;3.50;1.17;;;;;;;24.34;30.99;100387.91;4501861;31;35187;-62
2022/07/17 05:14:40;;;;;;;2.58;1.05;;;;;;;23.38;33.29;100401.22;4501138;31;34615;-61
2022/07/17 05:17:08;;;;;;;2.30;1.10;;;;;;;23.85;32.31;100394.72;4501009;31;33970;-60
2022/07/17 05:19:36;;;;;;;2.22;1.25;;;;;;;23.79;33.00;100394.59;4496909;31;34077;-61
2022/07/17 05:22:04;;;;;;;2.65;1.35;;;;;;;23.46;33.13;100397.56;4499256;31;33974;-60
2022/07/17 05:24:33;;;;;;;2.92;1.40;;;;;;;23.21;34.20;100391.44;4498878;31;34437;-60
2022/07/17 05:27:01;;;;;;;3.40;1.23;;;;;;;23.56;33.14;100395.44;4498269;31;33936;-60
2022/07/17 05:29:28;;;;;;;2.87;1.30;;;;;;;24.08;32.47;100393.81;4497579;31;33911;-61
2022/07/17 05:31:56;;;;;;;2.37;1.05;;;;;;;23.20;33.33;100396.03;4491557;31;32783;-61
2022/07/17 05:34:24;;;;;;;1.98;1.20;;;;;;;23.13;34.56;100399.69;4492345;31;33671;-61
2022/07/17 05:36:51;;;;;;;3.45;1.40;;;;;;;23.36;34.11;100402.44;4499508;31;33992;-60
2022/07/17 05:39:19;;;;;;;5.60;1.20;;;;;;;23.24;35.01;100404.72;4499276;31;34918;-63
2022/07/17 05:41:46;;;;;;;3.87;1.15;;;;;;;23.84;33.13;100395.75;4496382;31;34366;-62
2022/07/17 05:44:14;;;;;;;4.18;1.35;;;;;;;23.86;33.28;100395.56;4499680;31;34840;-61
2022/07/17 05:46:42;;;;;;;3.50;1.25;;;;;;;23.38;34.15;100408.56;4501163;31;33903;-60
2022/07/17 05:49:09;;;;;;;5.65;1.27;;;;;;;23.43;33.76;100400.66;4498141;31;33763;-61
2022/07/17 05:51:37;;;;;;;1.37;0.93;;;;;;;23.49;33.95;100402.66;4499332;31;34378;-63
2022/07/17 05:54:05;;;;;;;2.33;1.10;;;;;;;23.60;33.64;100399.53;4498296;31;34657;-61
2022/07/17 05:56:32;;;;;;;3.08;1.20;;;;;;;23.54;33.35;100405.72;4499738;31;33927;-59
2022/07/17 05:59:00;;;;;;;3.15;1.27;;;;;;;23.29;33.77;100401.47;4497551;31;32658;-60
2022/07/17 06:01:28;;;;;;;4.07;1.55;;;;;;;22.95;34.49;100405.41;4492974;31;34833;-60
2022/07/17 06:03:56;;;;;;;3.62;1.33;;;;;;;23.13;34.47;100403.28;4488786;31;33127;-60
2022/07/17 06:06:23;;;;;;;1.73;1.08;;;;;;;22.97;34.65;100414.28;4498199;31;34070;-61
2022/07/17 06:08:51;;;;;;;3.15;1.00;;;;;;;23.35;34.83;100412.50;4500020;31;34324;-61
2022/07/17 06:11:19;;;;;;;2.95;0.95;;;;;;;23.09;35.53;100410.13;4493702;31;33898;-61
2022/07/17 06:13:54;;;;;;;4.90;1.20;;;;;;;23.22;34.52;100412.28;4493632;31;33429;-61
2022/07/17 06:16:22;;;;;;;3.62;1.30;;;;;;;23.35;34.54;100415.25;4499904;31;33858;-62
2022/07/17 06:18:50;;;;;;;4.65;1.50;;;;;;;22.98;34.77;100415.97;4492872;31;33598;-62
2022/07/17 06:21:19;;;;;;;2.28;1.23;;;;;;;23.23;34.19;100422.16;4496299;31;34237;-63
2022/07/17 06:23:47;;;;;;;2.67;1.10;;;;;;;23.34;34.28;100427.22;4493597;31;33397;-62
2022/07/17 06:26:14;;;;;;;1.92;1.00;;;;;;;23.86;33.06;100431.97;4499727;31;34734;-61
2022/07/17 06:28:42;;;;;;;4.70;1.00;;;;;;;23.11;32.33;100418.97;4500166;31;34098;-61
2022/07/17 06:31:10;;;;;;;2.15;1.15;;;;;;;23.02;33.79;100420.91;4499553;31;33737;-62
2022/07/17 06:33:38;;;;;;;1.20;0.80;;;;;;;22.96;33.13;100427.09;4498985;31;32998;-62
2022/07/17 06:36:05;;;;;;;3.97;1.08;;;;;;;23.42;33.59;100429.87;4490473;31;32530;-61
2022/07/17 06:38:34;;;;;;;2.22;1.10;;;;;;;23.69;32.94;100430.37;4500627;31;33903;-61
2022/07/17 06:41:02;;;;;;;1.98;0.90;;;;;;;23.56;32.65;100430.09;4499766;31;34034;-63
2022/07/17 06:43:29;;;;;;;4.00;1.15;;;;;;;23.67;32.67;100435.16;4498011;31;33600;-62
2022/07/17 06:45:57;;;;;;;3.62;1.10;;;;;;;23.98;31.25;100429.63;4500448;31;33561;-60
2022/07/17 06:48:25;;;;;;;3.78;1.05;;;;;;;23.56;32.06;100430.09;4500538;31;33930;-63
2022/07/17 06:50:53;;;;;;;2.58;1.08;;;;;;;24.21;30.86;100432.31;4496535;31;34112;-63
2022/07/17 06:53:20;;;;;;;4.50;1.00;;;;;;;23.92;31.19;100431.22;4495645;31;33398;-61
2022/07/17 06:55:48;;;;;;;2.50;1.17;;;;;;;24.09;31.48;100431.91;4497267;31;33738;-62
2022/07/17 06:58:15;;;;;;;2.40;1.15;;;;;;;23.66;31.02;100420.66;4500558;31;34256;-61
2022/07/17 07:00:43;;;;;;;2.62;0.90;;;;;;;23.90;31.40;100430.53;4499336;31;34207;-60
2022/07/17 07:03:11;;;;;;;4.95;1.12;;;;;;;23.24;31.03;100432.03;4489993;31;34504;-59
2022/07/17 07:05:38;;;;;;;5.15;1.27;;;;;;;23.39;31.21;100426.66;4498796;31;32291;-61
2022/07/17 07:08:06;;;;;;;4.62;1.20;;;;;;;23.61;31.71;100423.06;4493390;31;35231;-60
2022/07/17 07:10:34;;;;;;;3.05;1.10;;;;;;;23.25;29.37;100436.50;4493066;31;32515;-61
2022/07/17 07:13:01;;;;;;;2.28;1.00;;;;;;;23.94;29.05;100426.41;4499509;31;33782;-60
2022/07/17 07:15:29;;;;;;;2.80;0.90;;;;;;;23.85;29.70;100427.53;4484281;31;33741;-60
2022/07/17 07:17:56;;;;;;;1.98;0.88;;;;;;;23.85;29.12;100429.38;4493558;31;34170;-60
2022/07/17 07:20:24;;;;;;;4.95;1.00;;;;;;;23.42;29.10;100427.13;4499659;31;33898;-61
2022/07/17 07:22:52;;;;;;;2.83;0.93;;;;;;;23.59;28.93;100429.75;4500276;31;33922;-61
2022/07/17 07:25:23;;;;;;;3.90;1.15;;;;;;;23.46;28.88;100427.63;4495450;31;33336;-61
2022/07/17 07:27:51;;;;;;;3.67;1.00;;;;;;;23.81;28.59;100434.38;4490976;31;35218;-61
2022/07/17 07:30:18;;;;;;;3.55;0.77;;;;;;;23.80;27.58;100434.56;4497494;31;33964;-62
2022/07/17 07:32:46;;;;;;;6.03;1.10;;;;;;;23.99;27.50;100435.94;4499441;31;33414;-61
2022/07/17 07:35:14;;;;;;;8.95;1.80;;;;;;;23.57;29.26;100442.75;4496558;31;34722;-62
2022/07/17 07:37:42;;;;;;;2.50;1.10;;;;;;;23.57;28.57;100437.28;4495541;31;35013;-61
2022/07/17 07:40:10;;;;;;;1.48;0.80;;;;;;;23.90;27.22;100430.53;4487613;31;32534;-61
2022/07/17 07:42:38;;;;;;;2.03;0.88;;;;;;;24.25;27.52;100428.16;4491724;31;32104;-60
2022/07/17 07:45:07;;;;;;;3.28;1.10;;;;;;;24.12;25.68;100430.69;4497612;31;35062;-60
2022/07/17 07:47:45;;;;;;;5.57;1.10;;;;;;;24.46;25.08;100430.16;4490119;31;33526;-60
2022/07/17 07:50:14;;;;;;;2.05;0.82;;;;;;;24.41;25.90;100435.38;4496408;31;34179;-61
2022/07/17 07:52:41;;;;;;;2.75;0.98;;;;;;;24.00;25.73;100427.53;4499097;31;34823;-62
2022/07/17 07:55:10;;;;;;;3.87;1.65;;;;;;;24.71;25.61;100429.87;4498836;31;33867;-60
2022/07/17 07:57:47;;;;;;;8.05;1.45;;;;;;;24.68;25.76;100436.56;4499028;31;34214;-61
2022/07/17 08:00:16;;;;;;;5.32;1.02;;;;;;;24.28;26.66;100433.25;4493356;31;33467;-62
2022/07/17 08:02:44;;;;;;;1.80;0.90;;;;;;;23.94;27.10;100426.41;4496530;31;34439;-61
2022/07/17 08:05:12;;;;;;;3.62;1.08;;;;;;;24.50;26.80;100436.97;4487489;31;33432;-61
2022/07/17 08:07:39;;;;;;;2.40;0.95;;;;;;;24.11;27.17;100437.19;4497805;31;34274;-61
2022/07/17 08:10:07;;;;;;;4.03;1.62;;;;;;;23.76;27.62;100438.72;4499299;31;33865;-61
2022/07/17 08:12:35;;;;;;;2.25;1.00;;;;;;;24.01;28.85;100448.38;4491816;31;34315;-60
2022/07/17 08:15:15;;;;;;;2.97;0.90;;;;;;;24.68;26.44;100436.56;4496912;31;34660;-61
2022/07/17 08:17:43;;;;;;;1.87;1.00;;;;;;;24.43;26.37;100443.38;4495107;31;35204;-61
2022/07/17 08:20:12;;;;;;;2.55;1.17;;;;;;;24.76;25.71;100436.50;4497237;31;34204;-61
2022/07/17 08:22:45;;;;;;;2.65;1.00;;;;;;;24.50;26.55;100436.97;4498191;31;32262;-62
2022/07/17 08:25:33;;;;;;;2.25;1.00;;;;;;;24.61;25.90;100441.97;4492081;31;33830;-61
2022/07/17 08:28:05;;;;;;;2.22;1.00;;;;;;;24.22;25.60;100442.19;4495273;31;35406;-61
2022/07/17 08:30:34;;;;;;;4.05;1.12;;;;;;;24.94;25.23;100446.19;4496241;31;33882;-61
2022/07/17 08:33:04;;;;;;;4.28;1.10;;;;;;;24.77;25.64;100446.41;4487827;31;32217;-62
2022/07/17 08:35:33;;;;;;;1.33;0.70;;;;;;;24.41;26.21;100449.06;4483101;31;32376;-61
2022/07/17 08:38:00;;;;;;;1.77;0.90;;;;;;;24.77;25.93;100451.88;4488793;31;35385;-61
2022/07/17 08:40:30;;;;;;;1.85;0.80;;;;;;;24.19;26.78;100439.84;4498425;31;34064;-60
2022/07/17 08:42:59;;;;;;;4.40;1.30;;;;;;;24.93;24.95;100439.88;4495582;31;35917;-60
2022/07/17 08:45:27;;;;;;;3.47;1.17;;;;;;;24.55;26.36;100445.47;4497097;31;34778;-60
2022/07/17 08:47:56;;;;;;;3.72;1.10;;;;;;;24.76;24.88;100443.87;4490489;31;34001;-61
2022/07/17 08:50:33;;;;;;;3.22;1.00;;;;;;;24.60;25.69;100442.16;4498453;31;35288;-61
2022/07/17 08:53:01;;;;;;;3.42;0.90;;;;;;;24.90;26.19;100445.72;4497113;31;34533;-61
2022/07/17 08:55:30;;;;;;;3.75;1.02;;;;;;;24.66;26.02;100449.63;4496926;31;34046;-61
2022/07/17 08:57:57;;;;;;;5.15;1.30;;;;;;;24.67;27.51;100442.25;4497987;31;33998;-60
2022/07/17 09:00:26;;;;;;;1.27;0.70;;;;;;;24.53;28.05;100455.75;4492445;31;34473;-62
2022/07/17 09:03:05;;;;;;;1.95;1.00;;;;;;;25.02;26.64;100451.56;4496503;31;34697;-61
2022/07/17 09:05:38;;;;;;;5.32;1.77;;;;;;;25.16;25.70;100449.84;4485334;31;32080;-60
2022/07/17 09:08:08;;;;;;;3.05;0.70;;;;;;;25.51;25.76;100448.97;4495619;31;35280;-60
2022/07/17 09:10:39;;;;;;;4.60;1.20;;;;;;;25.29;25.97;100437.16;4494646;31;32435;-61
2022/07/17 09:13:16;;;;;;;2.85;1.00;;;;;;;25.49;26.25;100439.25;4494587;31;33235;-63
2022/07/17 09:15:44;;;;;;;1.23;0.80;;;;;;;25.95;25.29;100444.37;4500938;31;34086;-61
2022/07/17 09:18:13;;;;;;;2.35;0.88;;;;;;;25.89;24.55;100435.03;4499984;31;32894;-62
2022/07/17 09:20:47;;;;;;;4.35;1.05;;;;;;;25.82;24.80;100428.66;4497488;31;35335;-61
2022/07/17 09:23:17;;;;;;;3.30;1.10;;;;;;;26.07;24.61;100442.78;4497923;31;34764;-62
2022/07/17 09:25:48;;;;;;;1.83;0.60;;;;;;;25.92;23.65;100439.28;4497936;31;34081;-61
2022/07/17 09:28:17;;;;;;;1.85;0.85;;;;;;;26.23;23.73;100433.41;4500436;31;35301;-61
2022/07/17 09:30:49;;;;;;;3.55;1.00;;;;;;;26.20;23.08;100439.31;4485031;31;33699;-61
2022/07/17 09:33:20;;;;;;;2.08;0.82;;;;;;;25.93;23.19;100444.56;4488162;31;31833;-60
2022/07/17 09:35:51;;;;;;;3.40;1.00;;;;;;;26.69;22.76;100430.97;4500416;31;35087;-59
2022/07/17 09:38:33;;;;;;;2.55;1.08;;;;;;;26.86;22.62;100422.41;4495366;31;33809;-61
2022/07/17 09:41:09;;;;;;;1.50;0.73;;;;;;;26.58;23.14;100425.19;4496337;31;33951;-61
2022/07/17 09:43:39;;;;;;;1.85;0.70;;;;;;;27.14;22.50;100422.31;4485576;31;33098;-62
2022/07/17 09:46:14;;;;;;;2.15;1.05;;;;;;;26.31;24.10;100419.53;4497516;31;35601;-61
2022/07/17 09:48:47;;;;;;;4.20;1.05;;;;;;;26.71;23.42;100417.06;4499934;31;33196;-62
2022/07/17 09:51:17;;;;;;;1.85;0.80;;;;;;;27.15;21.74;100418.50;4498366;31;33617;-61
2022/07/17 09:53:47;;;;;;;3.15;0.90;;;;;;;27.16;21.64;100415.56;4499976;31;33624;-62
2022/07/17 09:56:18;;;;;;;2.83;0.98;;;;;;;27.47;21.92;100416.06;4500673;31;34922;-60
2022/07/17 09:58:52;;;;;;;3.00;1.02;;;;;;;27.32;21.95;100428.09;4498006;31;34696;-62
2022/07/17 10:01:20;;;;;;;2.47;0.97;;;;;;;27.81;21.47;100407.66;4489430;31;33749;-61
2022/07/17 10:03:50;;;;;;;1.65;0.80;;;;;;;28.01;20.86;100423.31;4497124;31;33620;-60
2022/07/17 10:06:17;;;;;;;1.77;0.75;;;;;;;28.06;20.58;100416.13;4496401;31;32439;-60
2022/07/17 10:08:46;;;;;;;2.33;1.00;;;;;;;27.52;21.93;100408.03;4493034;31;34918;-61
2022/07/17 10:11:15;;;;;;;2.78;0.90;;;;;;;27.96;20.81;100420.34;4500352;31;33823;-61
2022/07/17 10:13:45;;;;;;;2.80;1.02;;;;;;;27.96;20.74;100418.47;4499605;31;34692;-61
2022/07/17 10:16:14;;;;;;;2.20;0.80;;;;;;;27.83;21.25;100411.06;4482337;31;32711;-61
2022/07/17 10:18:44;;;;;;;4.05;1.10;;;;;;;28.19;20.83;100415.25;4496222;31;33957;-61
2022/07/17 10:21:14;;;;;;;2.42;1.02;;;;;;;28.53;20.45;100411.38;4496463;31;34173;-60
2022/07/17 10:23:46;;;;;;;1.87;0.82;;;;;;;27.56;21.71;100410.16;4493831;31;32903;-61
2022/07/17 10:26:14;;;;;;;3.55;1.08;;;;;;;27.72;21.21;100413.56;4485655;31;33475;-60
2022/07/17 10:28:44;;;;;;;3.25;1.00;;;;;;;27.82;21.46;100409.34;4477747;31;32509;-61
2022/07/17 10:31:26;;;;;;;2.78;1.23;;;;;;;28.63;20.66;100410.94;4485623;31;32462;-60
2022/07/17 10:33:57;;;;;;;2.47;0.82;;;;;;;28.34;20.40;100402.09;4496136;31;33607;-61
2022/07/17 10:36:41;;;;;;;1.52;0.98;;;;;;;27.94;21.64;100397.72;4496774;31;33001;-60
2022/07/17 10:39:18;;;;;;;2.30;0.93;;;;;;;28.13;21.42;100412.53;4498239;31;32448;-61
2022/07/17 10:41:58;;;;;;;3.65;0.95;;;;;;;28.34;21.30;100401.25;4500365;31;34168;-61
2022/07/17 10:44:28;;;;;;;6.40;0.85;;;;;;;28.97;20.19;100395.12;4491904;31;34329;-61
2022/07/17 10:46:56;;;;;;;4.45;0.85;;;;;;;28.94;20.43;100396.41;4495664;31;35020;-62
2022/07/17 10:49:25;;;;;;;3.22;1.45;;;;;;;29.29;18.80;100404.31;4497456;31;32714;-60
2022/07/17 10:51:53;;;;;;;2.58;1.00;;;;;;;29.16;19.10;100394.22;4497602;31;32578;-62
2022/07/17 10:54:32;;;;;;;2.85;1.05;;;;;;;28.72;19.96;100400.53;4487111;31;32196;-60
2022/07/17 10:57:03;;;;;;;3.75;1.08;;;;;;;29.02;18.61;100392.56;4484820;31;32598;-62
2022/07/17 10:59:32;;;;;;;1.70;0.77;;;;;;;29.24;19.20;100385.66;4494882;31;34057;-62
2022/07/17 11:02:00;;;;;;;2.50;0.95;;;;;;;28.59;19.31;100393.16;4482098;31;32564;-62
2022/07/17 11:04:36;;;;;;;4.12;1.00;;;;;;;29.03;18.25;100391.53;4499526;31;34909;-63
2022/07/17 11:07:09;;;;;;;4.03;1.05;;;;;;;28.34;19.63;100384.72;4492799;31;33490;-61
2022/07/17 11:09:46;;;;;;;1.77;0.82;;;;;;;28.46;19.39;100385.78;4498956;31;32421;-63
2022/07/17 11:12:16;;;;;;;1.60;0.80;;;;;;;28.59;19.54;100382.16;4496658;31;34329;-62
2022/07/17 11:14:44;;;;;;;2.67;0.90;;;;;;;28.96;19.14;100383.28;4499058;31;32568;-62
2022/07/17 11:17:12;;;;;;;3.87;0.95;;;;;;;28.79;19.15;100369.13;4475480;31;32349;-62
2022/07/17 11:19:45;;;;;;;2.70;1.02;;;;;;;28.66;19.46;100377.47;4495804;31;34263;-61
2022/07/17 11:22:13;;;;;;;4.35;0.80;;;;;;;28.15;19.57;100375.44;4500084;31;34003;-61
2022/07/17 11:24:44;;;;;;;4.47;0.77;;;;;;;28.64;19.51;100363.09;4497416;31;35166;-62
2022/07/17 11:27:26;;;;;;;2.08;1.00;;;;;;;29.01;18.93;100364.19;4496219;31;33469;-61
2022/07/17 11:29:55;;;;;;;4.45;1.00;;;;;;;29.27;18.92;100378.03;4498076;31;34284;-62
2022/07/17 11:32:25;;;;;;;5.85;1.10;;;;;;;29.36;17.82;100369.28;4498652;31;32461;-61